createdAt,value
2019-01-19T07:43:18.461Z,336.00
2019-01-19T07:44:18.429Z,352.00
2019-01-19T07:45:18.420Z,372.00
2019-01-19T07:46:19.237Z,384.00
2019-01-19T07:47:18.398Z,408.00
2019-01-19T07:48:18.394Z,420.00
2019-01-19T07:49:18.445Z,436.00
2019-01-19T07:50:18.379Z,452.00
2019-01-19T07:51:18.376Z,468.00
2019-01-19T07:52:18.349Z,484.00
2019-01-19T07:53:18.342Z,500.00
2019-01-19T07:54:18.337Z,512.00
2019-01-19T07:55:18.320Z,528.00
2019-01-19T07:56:18.322Z,544.00
2019-01-19T07:57:18.295Z,576.00
2019-01-19T07:58:18.292Z,600.00
2019-01-19T07:59:19.763Z,632.00
2019-01-19T08:00:18.311Z,672.00
2019-01-19T08:01:18.271Z,708.00
2019-01-19T08:02:18.242Z,744.00
2019-01-19T08:03:18.232Z,780.00
2019-01-19T08:04:18.229Z,816.00
2019-01-19T08:05:18.211Z,848.00
2019-01-19T08:06:18.211Z,876.00
2019-01-19T08:07:18.208Z,904.00
2019-01-19T08:08:18.180Z,932.00
2019-01-19T08:09:18.175Z,960.00
2019-01-19T08:10:18.171Z,984.00
2019-01-19T08:11:18.165Z,1016.00
2019-01-19T08:12:18.139Z,1052.00
2019-01-19T08:13:18.132Z,1096.00
2019-01-19T08:14:18.117Z,1132.00
2019-01-19T08:15:18.108Z,1156.00
2019-01-19T08:16:18.127Z,1212.00
2019-01-19T08:17:18.087Z,1292.00
2019-01-19T08:18:18.075Z,1356.00
2019-01-19T08:19:18.097Z,1392.00
2019-01-19T08:20:18.056Z,1444.00
2019-01-19T08:21:18.058Z,1468.00
2019-01-19T08:22:18.148Z,1476.00
2019-01-19T08:23:18.028Z,1480.00
2019-01-19T08:24:18.027Z,1488.00
2019-01-19T08:25:18.007Z,1516.00
2019-01-19T08:26:17.995Z,1528.00
2019-01-19T08:27:18.000Z,1584.00
2019-01-19T08:28:17.974Z,1656.00
2019-01-19T08:29:18.456Z,1680.00
2019-01-19T08:30:17.962Z,1672.00
2019-01-19T08:31:17.945Z,1716.00
2019-01-19T08:32:17.951Z,1776.00
2019-01-19T08:33:17.924Z,1864.00
2019-01-19T08:34:25.944Z,1924.00
2019-01-19T08:35:17.905Z,1932.00
2019-01-19T08:36:17.892Z,1916.00
2019-01-19T08:37:24.306Z,1892.00
2019-01-19T08:38:18.869Z,1968.00
2019-01-19T08:39:17.862Z,2000.00
2019-01-19T08:40:17.852Z,1960.00
2019-01-19T08:41:17.841Z,2016.00
2019-01-19T08:42:17.860Z,2052.00
2019-01-19T08:43:17.827Z,2152.00
2019-01-19T08:44:17.825Z,2160.00
2019-01-19T08:45:17.804Z,2304.00
2019-01-19T08:46:17.791Z,2632.00
2019-01-19T08:47:17.795Z,2868.00
2019-01-19T08:48:17.769Z,2964.00
2019-01-19T08:49:17.775Z,2948.00
2019-01-19T08:50:17.752Z,3456.00
2019-01-19T08:51:17.747Z,3792.00
2019-01-19T08:52:17.794Z,3636.00
2019-01-19T08:53:17.715Z,3688.00
2019-01-19T08:54:17.728Z,3808.00
2019-01-19T08:55:17.694Z,3788.00
2019-01-19T08:56:17.686Z,3676.00
2019-01-19T08:57:17.686Z,3464.00
2019-01-19T08:58:17.683Z,3472.00
2019-01-19T08:59:17.652Z,3500.00
2019-01-19T09:00:17.640Z,3468.00
2019-01-19T09:01:17.631Z,3464.00
2019-01-19T09:02:17.627Z,3504.00
2019-01-19T09:03:18.598Z,3524.00
2019-01-19T09:04:17.765Z,3468.00
2019-01-19T09:05:17.597Z,3392.00
2019-01-19T09:06:17.576Z,3524.00
2019-01-19T09:07:17.567Z,3540.00
2019-01-19T09:08:17.575Z,3668.00
2019-01-19T09:09:17.567Z,3756.00
2019-01-19T09:10:17.540Z,3708.00
2019-01-19T09:11:17.526Z,3588.00
2019-01-19T09:12:17.521Z,3676.00
2019-01-19T09:13:17.519Z,3748.00
2019-01-19T09:14:17.494Z,3636.00
2019-01-19T09:15:17.487Z,3884.00
2019-01-19T09:16:17.486Z,4188.00
2019-01-19T09:17:17.459Z,4500.00
2019-01-19T09:18:17.476Z,4696.00
2019-01-19T09:19:17.439Z,4756.00
2019-01-19T09:20:17.436Z,5064.00
2019-01-19T09:21:17.420Z,5392.00
2019-01-19T09:22:17.458Z,5620.00
2019-01-19T09:23:17.436Z,5660.00
2019-01-19T09:24:17.389Z,5552.00
2019-01-19T09:25:17.376Z,5488.00
2019-01-19T09:26:17.431Z,5496.00
2019-01-19T09:27:17.362Z,5756.00
2019-01-19T09:28:17.362Z,6092.00
2019-01-19T09:29:17.331Z,6332.00
2019-01-19T09:30:17.321Z,6648.00
2019-01-19T09:31:17.313Z,6760.00
2019-01-19T09:32:17.311Z,6908.00
2019-01-19T09:33:17.314Z,7044.00
2019-01-19T09:34:17.280Z,7184.00
2019-01-19T09:35:17.271Z,7308.00
2019-01-19T09:36:17.261Z,7540.00
2019-01-19T09:37:17.250Z,7708.00
2019-01-19T09:38:17.256Z,7720.00
2019-01-19T09:39:17.257Z,7592.00
2019-01-19T09:40:17.215Z,7652.00
2019-01-19T09:41:17.221Z,7776.00
2019-01-19T09:42:17.195Z,7772.00
2019-01-19T09:43:18.309Z,7924.00
2019-01-19T09:44:17.201Z,8204.00
2019-01-19T09:45:17.163Z,8412.00
2019-01-19T09:46:17.157Z,8572.00
2019-01-19T09:47:17.661Z,8776.00
2019-01-19T09:48:17.131Z,8828.00
2019-01-19T09:49:17.145Z,8976.00
2019-01-19T09:50:17.112Z,9108.00
2019-01-19T09:51:17.101Z,9160.00
2019-01-19T09:52:21.124Z,9072.00
2019-01-19T09:53:17.081Z,8904.00
2019-01-19T09:54:17.084Z,8668.00
2019-01-19T09:55:17.059Z,8488.00
2019-01-19T09:56:18.557Z,8244.00
2019-01-19T09:57:17.037Z,8008.00
2019-01-19T09:58:17.038Z,7788.00
2019-01-19T09:59:17.035Z,7548.00
2019-01-19T10:00:17.039Z,7384.00
2019-01-19T10:01:16.994Z,7276.00
2019-01-19T10:02:16.984Z,7344.00
2019-01-19T10:03:16.974Z,7428.00
2019-01-19T10:04:16.996Z,7424.00
2019-01-19T10:05:16.970Z,7280.00
2019-01-19T10:06:16.943Z,6980.00
2019-01-19T10:07:16.935Z,6616.00
2019-01-19T10:08:16.923Z,6536.00
2019-01-19T10:09:16.916Z,6384.00
2019-01-19T10:10:16.917Z,6204.00
2019-01-19T10:11:16.899Z,5736.00
2019-01-19T10:12:16.901Z,5780.00
2019-01-19T10:13:16.871Z,5804.00
2019-01-19T10:14:16.861Z,6052.00
2019-01-19T10:15:16.869Z,6284.00
2019-01-19T10:16:16.847Z,6644.00
2019-01-19T10:17:16.830Z,6988.00
2019-01-19T10:18:16.829Z,7292.00
2019-01-19T10:19:16.810Z,7252.00
2019-01-19T10:20:16.819Z,7052.00
2019-01-19T10:21:16.796Z,7204.00
2019-01-19T10:22:16.783Z,7604.00
2019-01-19T10:23:16.766Z,8520.00
2019-01-19T10:24:16.766Z,7956.00
2019-01-19T10:25:16.762Z,7456.00
2019-01-19T10:26:16.739Z,7412.00
2019-01-19T10:27:16.725Z,7180.00
2019-01-19T10:28:16.721Z,7028.00
2019-01-19T10:29:16.705Z,7088.00
2019-01-19T10:30:16.718Z,7252.00
2019-01-19T10:31:16.683Z,7356.00
2019-01-19T10:32:16.674Z,7504.00
2019-01-19T10:33:16.662Z,7472.00
2019-01-19T10:34:16.653Z,7552.00
2019-01-19T10:35:16.669Z,7532.00
2019-01-19T10:36:16.642Z,7604.00
2019-01-19T10:37:16.621Z,7704.00
2019-01-19T10:38:16.611Z,7576.00
2019-01-19T10:39:16.611Z,7092.00
2019-01-19T10:40:16.590Z,7184.00
2019-01-19T10:41:16.594Z,7216.00
2019-01-19T10:42:16.576Z,7340.00
2019-01-19T10:43:16.557Z,7328.00
2019-01-19T10:44:16.547Z,7132.00
2019-01-19T10:45:16.538Z,7320.00
2019-01-19T10:46:16.548Z,7324.00
2019-01-19T10:47:16.516Z,7312.00
2019-01-19T10:48:16.513Z,7260.00
2019-01-19T10:49:16.549Z,7192.00
2019-01-19T10:50:16.486Z,7296.00
2019-01-19T10:51:16.495Z,7652.00
2019-01-19T10:52:16.516Z,8184.00
2019-01-19T10:53:16.460Z,8584.00
2019-01-19T10:54:16.446Z,8744.00
2019-01-19T10:55:16.439Z,8896.00
2019-01-19T10:56:16.441Z,8696.00
2019-01-19T10:57:16.414Z,8132.00
2019-01-19T10:58:16.415Z,7680.00
2019-01-19T10:59:16.399Z,7584.00
2019-01-19T11:00:16.386Z,7800.00
2019-01-19T11:01:16.395Z,8052.00
2019-01-19T11:02:16.364Z,8476.00
2019-01-19T11:03:16.361Z,8924.00
2019-01-19T11:04:16.345Z,9272.00
2019-01-19T11:05:16.335Z,9496.00
2019-01-19T11:06:16.340Z,9592.00
2019-01-19T11:07:16.319Z,9608.00
2019-01-19T11:08:16.303Z,9748.00
2019-01-19T11:09:16.293Z,9952.00
2019-01-19T11:10:16.289Z,10228.00
2019-01-19T11:11:16.309Z,10596.00
2019-01-19T11:12:16.261Z,10884.00
2019-01-19T11:13:16.252Z,11176.00
2019-01-19T11:14:16.254Z,11484.00
2019-01-19T11:15:16.243Z,11836.00
2019-01-19T11:16:16.221Z,12052.00
2019-01-19T11:17:16.237Z,12292.00
2019-01-19T11:18:16.199Z,12172.00
2019-01-19T11:19:16.189Z,11764.00
2019-01-19T11:20:16.179Z,11904.00
2019-01-19T11:21:16.181Z,12048.00
2019-01-19T11:22:16.177Z,11468.00
2019-01-19T11:23:16.164Z,10464.00
2019-01-19T11:24:16.136Z,9964.00
2019-01-19T11:25:16.128Z,9756.00
2019-01-19T11:26:16.118Z,9652.00
2019-01-19T11:27:16.121Z,9588.00
2019-01-19T11:28:16.098Z,9608.00
2019-01-19T11:29:16.092Z,9576.00
2019-01-19T11:30:16.071Z,9476.00
2019-01-19T11:31:16.087Z,9364.00
2019-01-19T11:32:16.069Z,9240.00
2019-01-19T11:33:16.042Z,9156.00
2019-01-19T11:34:16.030Z,8988.00
2019-01-19T11:35:16.019Z,8724.00
2019-01-19T11:36:16.018Z,8448.00
2019-01-19T11:37:16.028Z,8092.00
2019-01-19T11:38:20.026Z,7572.00
2019-01-19T11:39:15.994Z,6548.00
2019-01-19T11:40:15.970Z,5736.00
2019-01-19T11:41:15.992Z,4780.00
2019-01-19T11:42:15.949Z,4388.00
2019-01-19T11:43:15.951Z,3800.00
2019-01-19T11:44:15.923Z,3548.00
2019-01-19T11:45:15.913Z,3424.00
2019-01-19T11:46:15.908Z,3428.00
2019-01-19T11:47:15.899Z,3552.00
2019-01-19T11:48:15.903Z,3704.00
2019-01-19T11:49:15.875Z,4272.00
2019-01-19T11:50:15.861Z,4112.00
2019-01-19T11:51:15.854Z,3548.00
2019-01-19T11:52:15.845Z,3532.00
2019-01-19T11:53:15.852Z,3660.00
2019-01-19T11:54:15.834Z,3800.00
2019-01-19T11:55:15.815Z,3904.00
2019-01-19T11:56:15.801Z,4120.00
2019-01-19T11:57:15.797Z,4228.00
2019-01-19T11:58:15.796Z,4348.00
2019-01-19T11:59:15.776Z,4540.00
2019-01-19T12:00:16.877Z,4468.00
2019-01-19T12:01:15.849Z,5080.00
2019-01-19T12:02:15.754Z,5448.00
2019-01-19T12:03:16.176Z,6080.00
2019-01-19T12:04:15.905Z,6592.00
2019-01-19T12:05:15.784Z,7584.00
2019-01-19T12:06:15.698Z,8544.00
2019-01-19T12:07:15.689Z,9296.00
2019-01-19T12:08:19.801Z,9848.00
2019-01-19T12:09:15.667Z,9696.00
2019-01-19T12:10:15.659Z,9688.00
2019-01-19T12:11:15.653Z,9500.00
2019-01-19T12:12:15.638Z,9880.00
2019-01-19T12:13:15.643Z,9740.00
2019-01-19T12:14:15.618Z,9840.00
2019-01-19T12:15:15.607Z,9752.00
2019-01-19T12:16:15.596Z,9880.00
2019-01-19T12:17:15.585Z,9340.00
2019-01-19T12:18:15.580Z,10112.00
2019-01-19T12:19:15.579Z,12672.00
2019-01-19T12:20:15.554Z,9860.00
2019-01-19T12:21:15.544Z,6984.00
2019-01-19T12:22:15.534Z,6072.00
2019-01-19T12:23:15.531Z,5296.00
2019-01-19T12:24:15.532Z,4420.00
2019-01-19T12:25:15.509Z,3824.00
2019-01-19T12:26:15.491Z,3648.00
2019-01-19T12:27:15.483Z,3600.00
2019-01-19T12:28:15.479Z,2712.00
2019-01-19T12:29:15.484Z,2128.00
2019-01-19T12:30:15.451Z,1932.00
2019-01-19T12:31:15.451Z,1864.00
2019-01-19T12:32:15.432Z,1792.00
2019-01-19T12:33:15.421Z,1724.00
2019-01-19T12:34:15.433Z,1708.00
2019-01-19T12:35:15.400Z,1692.00
2019-01-19T12:36:15.390Z,1672.00
2019-01-19T12:37:15.390Z,1656.00
2019-01-19T12:38:15.368Z,1640.00
2019-01-19T12:39:15.374Z,1616.00
2019-01-19T12:40:15.349Z,1612.00
2019-01-19T12:41:15.339Z,1604.00
2019-01-19T12:42:15.333Z,1584.00
2019-01-19T12:43:15.323Z,1556.00
2019-01-19T12:44:15.344Z,1544.00
2019-01-19T12:45:15.298Z,1528.00
2019-01-19T12:46:15.286Z,1516.00
2019-01-19T12:47:15.281Z,1512.00
2019-01-19T12:48:15.272Z,1492.00
2019-01-19T12:49:15.258Z,1496.00
2019-01-19T12:50:15.289Z,1488.00
2019-01-19T12:51:15.236Z,1460.00
2019-01-19T12:52:15.224Z,1432.00
2019-01-19T12:53:15.945Z,1412.00
2019-01-19T12:54:15.214Z,1396.00
2019-01-19T12:55:15.210Z,1396.00
2019-01-19T12:56:15.182Z,1396.00
2019-01-19T12:57:15.177Z,1392.00
2019-01-19T12:58:15.161Z,1384.00
2019-01-19T12:59:15.152Z,1380.00
2019-01-19T13:00:15.157Z,1376.00
2019-01-19T13:01:15.139Z,1376.00
2019-01-19T13:02:15.118Z,1376.00
2019-01-19T13:03:15.113Z,1372.00
2019-01-19T13:04:15.134Z,1364.00
2019-01-19T13:05:15.104Z,1360.00
2019-01-19T13:06:15.117Z,1352.00
2019-01-19T13:07:15.073Z,1348.00
2019-01-19T13:08:15.054Z,1336.00
2019-01-19T13:09:15.047Z,1328.00
2019-01-19T13:10:15.059Z,1328.00
2019-01-19T13:11:15.024Z,1324.00
2019-01-19T13:12:15.014Z,1316.00
2019-01-19T13:13:15.010Z,1304.00
2019-01-19T13:14:14.992Z,1296.00
2019-01-19T13:15:15.035Z,1292.00
2019-01-19T13:16:14.971Z,1288.00
2019-01-19T13:17:14.964Z,1280.00
2019-01-19T13:18:14.950Z,1268.00
2019-01-19T13:19:14.941Z,1264.00
2019-01-19T13:20:14.943Z,1256.00
2019-01-19T13:21:14.941Z,1252.00
2019-01-19T13:22:14.912Z,1240.00
2019-01-19T13:23:14.985Z,1232.00
2019-01-19T13:24:14.890Z,1224.00
2019-01-19T13:25:14.878Z,1212.00
2019-01-19T13:26:14.891Z,1208.00
2019-01-19T13:27:14.856Z,1200.00
2019-01-19T13:28:14.845Z,1196.00
2019-01-19T13:29:14.833Z,1184.00
2019-01-19T13:30:14.828Z,1172.00
2019-01-19T13:31:14.853Z,1164.00
2019-01-19T13:32:14.845Z,1152.00
2019-01-19T13:33:14.792Z,1148.00
2019-01-19T13:34:14.784Z,1136.00
2019-01-19T13:35:14.771Z,1128.00
2019-01-19T13:36:14.770Z,1124.00
2019-01-19T13:37:14.772Z,1116.00
2019-01-19T13:38:14.745Z,1108.00
2019-01-19T13:39:14.736Z,1100.00
2019-01-19T13:40:14.735Z,1088.00
2019-01-19T13:41:14.710Z,1076.00
2019-01-19T13:42:14.715Z,1068.00
2019-01-19T13:43:14.690Z,1056.00
2019-01-19T13:44:14.676Z,1048.00
2019-01-19T13:45:14.669Z,1040.00
2019-01-19T13:46:14.655Z,1032.00
2019-01-19T13:47:14.664Z,1020.00
2019-01-19T13:48:14.637Z,1008.00
2019-01-19T13:49:14.624Z,1004.00
2019-01-19T13:50:14.617Z,980.00
2019-01-19T13:51:14.605Z,972.00
2019-01-19T13:52:14.608Z,972.00
2019-01-19T13:53:14.579Z,968.00
2019-01-19T13:54:14.576Z,960.00
2019-01-19T13:55:14.630Z,960.00
2019-01-19T13:56:14.552Z,952.00
2019-01-19T13:57:14.560Z,952.00
2019-01-19T13:58:14.530Z,948.00
2019-01-19T13:59:14.517Z,944.00
2019-01-19T14:00:18.510Z,936.00
2019-01-19T14:01:14.511Z,924.00
2019-01-19T14:02:14.766Z,916.00
2019-01-19T14:03:14.474Z,908.00
2019-01-19T14:04:14.465Z,900.00
2019-01-19T14:05:14.457Z,892.00
2019-01-19T14:06:14.441Z,888.00
2019-01-19T14:07:14.436Z,888.00
2019-01-19T14:08:14.446Z,884.00
2019-01-19T14:09:14.412Z,880.00
2019-01-19T14:10:14.401Z,872.00
2019-01-19T14:11:14.391Z,868.00
2019-01-19T14:12:14.387Z,860.00
2019-01-19T14:13:14.396Z,856.00
2019-01-19T14:14:14.360Z,848.00
2019-01-19T14:15:14.355Z,844.00
2019-01-19T14:16:14.337Z,836.00
2019-01-19T14:17:14.331Z,828.00
2019-01-19T14:18:14.334Z,824.00
2019-01-19T14:19:14.307Z,816.00
2019-01-19T14:20:14.295Z,812.00
2019-01-19T14:21:14.284Z,812.00
2019-01-19T14:22:14.285Z,796.00
2019-01-19T14:23:14.283Z,792.00
2019-01-19T14:24:14.268Z,780.00
2019-01-19T14:25:14.244Z,776.00
2019-01-19T14:26:14.232Z,768.00
2019-01-19T14:27:14.221Z,768.00
2019-01-19T14:28:14.230Z,760.00
2019-01-19T14:29:14.201Z,752.00
2019-01-19T14:30:15.688Z,748.00
2019-01-19T14:31:14.181Z,736.00
2019-01-19T14:32:14.170Z,732.00
2019-01-19T14:33:14.182Z,724.00
2019-01-19T14:34:14.163Z,712.00
2019-01-19T14:35:14.143Z,704.00
2019-01-19T14:36:14.138Z,700.00
2019-01-19T14:37:14.116Z,688.00
2019-01-19T14:38:14.113Z,684.00
2019-01-19T14:39:14.109Z,676.00
2019-01-19T14:40:14.083Z,668.00
2019-01-19T14:41:14.072Z,664.00
2019-01-19T14:42:14.061Z,660.00
2019-01-19T14:43:14.060Z,652.00
2019-01-19T14:44:14.061Z,648.00
2019-01-19T14:45:14.030Z,636.00
2019-01-19T14:46:14.020Z,628.00
2019-01-19T14:47:14.012Z,620.00
2019-01-19T14:48:14.003Z,608.00
2019-01-19T14:49:14.008Z,600.00
2019-01-19T14:50:13.986Z,592.00
2019-01-19T14:51:13.989Z,580.00
2019-01-19T14:52:13.956Z,572.00
2019-01-19T14:53:13.946Z,560.00
2019-01-19T14:54:13.952Z,548.00
2019-01-19T14:55:13.926Z,544.00
2019-01-19T14:56:13.923Z,536.00
2019-01-19T14:57:13.925Z,532.00
2019-01-19T14:58:13.897Z,528.00
2019-01-19T14:59:13.909Z,524.00
2019-01-19T15:00:13.873Z,520.00
2019-01-19T15:01:13.865Z,516.00
2019-01-19T15:02:13.897Z,508.00
2019-01-19T15:03:13.844Z,500.00
2019-01-19T15:04:13.860Z,492.00
2019-01-19T15:05:13.829Z,480.00
2019-01-19T15:06:13.811Z,468.00
2019-01-19T15:07:13.800Z,456.00
2019-01-19T15:08:13.788Z,448.00
2019-01-19T15:09:13.788Z,432.00
2019-01-19T15:10:13.786Z,424.00
2019-01-19T15:11:13.761Z,416.00
2019-01-19T15:12:13.750Z,408.00
2019-01-19T15:13:13.744Z,400.00
2019-01-19T15:14:13.729Z,392.00
2019-01-19T15:15:13.732Z,384.00
2019-01-19T15:16:13.704Z,372.00
2019-01-19T15:17:13.694Z,368.00
2019-01-19T15:18:13.683Z,360.00
2019-01-19T15:19:13.677Z,352.00
2019-01-19T15:20:13.677Z,344.00
2019-01-19T15:21:13.657Z,336.00
2019-01-19T15:22:13.641Z,328.00
2019-01-19T15:23:13.631Z,320.00
2019-01-19T15:24:13.619Z,312.00
2019-01-19T15:25:13.626Z,308.00
2019-01-19T15:26:13.612Z,300.00
2019-01-19T15:27:13.594Z,292.00
2019-01-19T15:28:13.594Z,284.00
2019-01-19T15:29:13.571Z,280.00
2019-01-19T15:30:13.572Z,272.00
2019-01-19T15:31:13.547Z,264.00
2019-01-19T15:32:13.559Z,256.00
2019-01-19T15:33:13.609Z,256.00
2019-01-19T15:34:13.514Z,248.00
2019-01-19T15:35:13.520Z,240.00
2019-01-19T15:36:13.497Z,236.00
2019-01-19T15:37:13.500Z,228.00
2019-01-19T15:38:13.475Z,220.00
2019-01-19T15:39:13.462Z,216.00
2019-01-19T15:40:13.470Z,208.00
2019-01-19T15:41:13.442Z,196.00
2019-01-19T15:42:13.442Z,192.00
2019-01-19T15:43:13.419Z,184.00
2019-01-19T15:44:13.409Z,180.00
2019-01-19T15:45:13.427Z,168.00
2019-01-19T15:46:13.388Z,160.00
2019-01-19T15:47:13.377Z,152.00
2019-01-19T15:48:13.374Z,148.00
2019-01-19T15:49:13.355Z,136.00
2019-01-19T15:50:13.346Z,128.00
2019-01-19T15:51:13.380Z,120.00
2019-01-19T15:52:13.367Z,112.00
2019-01-19T15:53:13.315Z,104.00
2019-01-19T15:54:13.303Z,96.00
2019-01-19T15:55:13.344Z,92.00
2019-01-19T15:56:13.297Z,88.00
2019-01-19T15:57:13.271Z,76.00
2019-01-19T15:58:13.477Z,76.00
2019-01-19T15:59:13.303Z,68.00
2019-01-19T16:00:13.244Z,60.00
2019-01-19T16:01:13.259Z,56.00
2019-01-19T16:02:13.260Z,52.00
2019-01-19T16:03:13.208Z,44.00
2019-01-19T16:04:13.198Z,40.00
2019-01-19T16:05:13.188Z,36.00
2019-01-19T16:06:13.192Z,36.00
2019-01-19T16:07:13.166Z,28.00
2019-01-19T16:08:13.166Z,28.00
2019-01-19T16:09:18.182Z,24.00
2019-01-19T16:10:14.135Z,20.00
2019-01-19T16:11:13.144Z,20.00
2019-01-19T16:12:13.113Z,16.00
2019-01-19T16:13:13.103Z,16.00
2019-01-19T16:14:13.106Z,12.00
2019-01-19T16:15:13.083Z,12.00
2019-01-19T16:16:13.093Z,12.00
2019-01-19T16:17:13.060Z,8.00
2019-01-19T16:18:13.085Z,8.00
2019-01-19T16:19:13.041Z,8.00
2019-01-19T16:20:13.031Z,8.00
2019-01-19T16:21:13.071Z,8.00
2019-01-19T16:22:13.014Z,4.00
2019-01-19T16:23:12.998Z,4.00
2019-01-19T16:24:12.987Z,4.00
2019-01-19T16:25:12.980Z,4.00
2019-01-19T16:26:12.967Z,4.00
2019-01-19T16:27:12.985Z,0.00
2019-01-19T16:28:12.947Z,4.00
2019-01-19T16:29:12.937Z,4.00
2019-01-19T16:30:12.923Z,4.00
2019-01-19T16:31:12.916Z,0.00
2019-01-19T16:32:12.929Z,0.00
2019-01-19T16:33:12.907Z,0.00
2019-01-19T16:34:12.888Z,0.00
2019-01-19T16:35:12.873Z,0.00
2019-01-19T16:36:12.865Z,0.00
2019-01-19T16:37:12.887Z,0.00
2019-01-19T16:38:12.842Z,0.00
2019-01-19T16:39:12.827Z,0.00
2019-01-19T16:40:12.839Z,0.00
2019-01-19T16:41:12.807Z,0.00
2019-01-19T16:42:12.815Z,0.00
2019-01-19T16:43:12.787Z,0.00
2019-01-19T16:44:12.776Z,0.00
2019-01-19T16:45:12.764Z,0.00
2019-01-19T16:46:12.764Z,0.00
2019-01-19T16:47:12.763Z,0.00
2019-01-19T16:48:12.733Z,0.00
2019-01-19T16:49:12.721Z,0.00
2019-01-19T16:50:13.080Z,0.00
2019-01-19T16:51:12.701Z,0.00
2019-01-19T16:52:12.727Z,0.00
2019-01-19T16:53:12.679Z,0.00
2019-01-19T16:54:12.668Z,0.00
2019-01-19T16:55:12.658Z,0.00
2019-01-19T16:56:12.656Z,0.00
2019-01-19T16:57:12.635Z,0.00
2019-01-19T16:58:12.644Z,0.00
2019-01-19T16:59:12.635Z,0.00
2019-01-19T17:00:12.631Z,0.00
2019-01-19T17:01:12.592Z,0.00
2019-01-19T17:02:12.583Z,0.00
2019-01-19T17:03:12.593Z,0.00
2019-01-19T17:04:12.577Z,0.00
2019-01-19T17:05:12.550Z,0.00
2019-01-19T17:06:12.543Z,0.00
2019-01-19T17:07:12.541Z,0.00
2019-01-19T17:08:12.541Z,0.00
2019-01-19T17:09:12.517Z,0.00
2019-01-19T17:10:12.601Z,0.00
2019-01-19T17:11:12.501Z,0.00
2019-01-19T17:12:12.477Z,0.00
2019-01-19T17:13:12.486Z,0.00
2019-01-19T17:14:12.463Z,0.00
2019-01-19T17:15:12.489Z,0.00
2019-01-19T17:16:12.477Z,0.00
2019-01-19T17:17:12.445Z,0.00
2019-01-19T17:18:12.634Z,0.00
2019-01-19T17:19:12.401Z,0.00
2019-01-19T17:20:12.391Z,0.00
2019-01-19T17:21:12.387Z,0.00
2019-01-19T17:22:12.368Z,0.00
2019-01-19T17:23:12.391Z,0.00
2019-01-19T17:24:12.349Z,0.00
2019-01-19T17:25:13.230Z,0.00
2019-01-19T17:26:12.330Z,0.00
2019-01-19T17:27:12.316Z,0.00
2019-01-19T17:28:12.359Z,0.00
2019-01-19T17:29:12.335Z,0.00
2019-01-19T17:30:12.286Z,0.00
2019-01-19T17:31:12.277Z,0.00
2019-01-19T17:32:12.599Z,0.00
2019-01-19T17:33:12.256Z,0.00
2019-01-19T17:34:12.257Z,0.00
2019-01-19T17:35:12.230Z,0.00
2019-01-19T17:36:12.236Z,0.00
2019-01-19T17:37:12.212Z,0.00
2019-01-19T17:38:12.199Z,0.00
2019-01-19T17:39:12.202Z,0.00
2019-01-19T17:40:12.190Z,0.00
2019-01-19T17:41:12.185Z,0.00
2019-01-19T17:42:12.156Z,0.00
2019-01-19T17:43:12.147Z,0.00
2019-01-19T17:44:12.269Z,0.00
2019-01-19T17:45:12.130Z,0.00
2019-01-19T17:46:12.113Z,0.00
2019-01-19T17:47:12.109Z,0.00
2019-01-19T17:48:12.092Z,0.00
2019-01-19T17:49:12.133Z,0.00
2019-01-19T17:50:12.082Z,0.00
2019-01-19T17:51:12.063Z,0.00
2019-01-19T17:52:12.052Z,0.00
2019-01-19T17:53:12.039Z,0.00
2019-01-19T17:54:12.091Z,0.00
2019-01-19T17:55:12.037Z,0.00
2019-01-19T17:56:12.007Z,0.00
2019-01-19T17:57:11.998Z,0.00
2019-01-19T17:58:11.996Z,0.00
2019-01-19T17:59:11.977Z,0.00
2019-01-19T18:00:11.983Z,0.00
2019-01-19T18:01:11.954Z,0.00
2019-01-19T18:02:11.943Z,0.00
2019-01-19T18:03:11.934Z,0.00
2019-01-19T18:04:11.939Z,0.00
2019-01-19T18:05:11.999Z,0.00
2019-01-19T18:06:11.902Z,0.00
2019-01-19T18:07:11.923Z,0.00
2019-01-19T18:08:11.878Z,0.00
2019-01-19T18:09:11.908Z,0.00
2019-01-19T18:10:11.886Z,0.00
2019-01-19T18:11:11.865Z,0.00
2019-01-19T18:12:11.844Z,0.00
2019-01-19T18:13:11.846Z,0.00
2019-01-19T18:14:11.815Z,0.00
2019-01-19T18:15:11.823Z,0.00
2019-01-19T18:16:11.810Z,0.00
2019-01-19T18:17:11.797Z,0.00
2019-01-19T18:18:11.774Z,0.00
2019-01-19T18:19:11.763Z,0.00
2019-01-19T18:20:11.816Z,0.00
2019-01-19T18:21:11.740Z,0.00
2019-01-19T18:22:11.730Z,0.00
2019-01-19T18:23:11.719Z,0.00
2019-01-19T18:24:11.709Z,0.00
2019-01-19T18:25:11.703Z,0.00
2019-01-19T18:26:11.717Z,0.00
2019-01-19T18:27:11.675Z,0.00
2019-01-19T18:28:11.666Z,0.00
2019-01-19T18:29:11.655Z,0.00
2019-01-19T18:30:11.645Z,0.00
2019-01-19T18:31:11.666Z,0.00
2019-01-19T18:32:11.633Z,0.00
2019-01-19T18:33:11.613Z,0.00
2019-01-19T18:34:11.602Z,0.00
2019-01-19T18:35:11.591Z,0.00
2019-01-19T18:36:11.596Z,0.00
2019-01-19T18:37:11.618Z,0.00
2019-01-19T18:38:11.568Z,0.00
2019-01-19T18:39:11.568Z,0.00
2019-01-19T18:40:11.571Z,0.00
2019-01-19T18:41:11.550Z,0.00
2019-01-19T18:42:11.558Z,0.00
2019-01-19T18:43:11.520Z,0.00
2019-01-19T18:44:11.555Z,0.00
2019-01-19T18:45:11.493Z,0.00
2019-01-19T18:46:11.529Z,0.00
2019-01-19T18:47:11.463Z,0.00
2019-01-19T18:48:11.483Z,0.00
2019-01-19T18:49:11.487Z,0.00
2019-01-19T18:50:11.441Z,0.00
2019-01-19T18:51:11.450Z,0.00
2019-01-19T18:52:11.430Z,0.00
2019-01-19T18:53:11.431Z,0.00
2019-01-19T18:54:11.407Z,0.00
2019-01-19T18:55:11.389Z,0.00
2019-01-19T18:56:11.433Z,0.00
2019-01-19T18:57:11.361Z,0.00
2019-01-19T18:58:11.351Z,0.00
2019-01-19T18:59:11.335Z,0.00
2019-01-19T19:00:11.404Z,0.00
2019-01-19T19:01:11.361Z,0.00
2019-01-19T19:02:11.312Z,0.00
2019-01-19T19:03:11.293Z,0.00
2019-01-19T19:04:11.302Z,0.00
2019-01-19T19:05:11.277Z,0.00
2019-01-19T19:06:11.272Z,0.00
2019-01-19T19:07:11.281Z,0.00
2019-01-19T19:08:11.254Z,0.00
2019-01-19T19:09:11.231Z,0.00
2019-01-19T19:10:11.224Z,0.00
2019-01-19T19:11:11.270Z,0.00
2019-01-19T19:12:11.236Z,0.00
2019-01-19T19:13:11.203Z,0.00
2019-01-19T19:14:11.179Z,0.00
2019-01-19T19:15:11.211Z,0.00
2019-01-19T19:16:11.166Z,0.00
2019-01-19T19:17:11.192Z,0.00
2019-01-19T19:18:11.141Z,0.00
2019-01-19T19:19:11.124Z,0.00
2019-01-19T19:20:11.117Z,0.00
2019-01-19T19:21:11.111Z,0.00
2019-01-19T19:22:11.201Z,0.00
2019-01-19T19:23:11.085Z,0.00
2019-01-19T19:24:11.077Z,0.00
2019-01-19T19:25:11.071Z,0.00
2019-01-19T19:26:11.085Z,0.00
2019-01-19T19:27:11.063Z,0.00
2019-01-19T19:28:11.033Z,0.00
2019-01-19T19:29:11.038Z,0.00
2019-01-19T19:30:11.010Z,0.00
2019-01-19T19:31:11.014Z,0.00
2019-01-19T19:32:11.062Z,0.00
2019-01-19T19:33:10.985Z,0.00
2019-01-19T19:34:10.967Z,0.00
2019-01-19T19:35:10.968Z,0.00
2019-01-19T19:36:10.949Z,0.00
2019-01-19T19:37:11.209Z,0.00
2019-01-19T19:38:10.951Z,0.00
2019-01-19T19:39:10.967Z,0.00
2019-01-19T19:40:10.904Z,0.00
2019-01-19T19:41:10.923Z,0.00
2019-01-19T19:42:10.890Z,0.00
2019-01-19T19:43:10.926Z,0.00
2019-01-19T19:44:10.867Z,0.00
2019-01-19T19:45:10.852Z,0.00
2019-01-19T19:46:10.845Z,0.00
2019-01-19T19:47:10.832Z,0.00
2019-01-19T19:48:10.859Z,0.00
2019-01-19T19:49:10.822Z,0.00
2019-01-19T19:50:10.798Z,0.00
2019-01-19T19:51:10.790Z,0.00
2019-01-19T19:52:11.552Z,0.00
2019-01-19T19:53:10.799Z,0.00
2019-01-19T19:54:10.769Z,0.00
2019-01-19T19:55:10.754Z,0.00
2019-01-19T19:56:10.751Z,0.00
2019-01-19T19:57:10.748Z,0.00
2019-01-19T19:58:10.742Z,0.00
2019-01-19T19:59:10.728Z,0.00
2019-01-19T20:00:10.705Z,0.00
2019-01-19T20:01:10.692Z,0.00
2019-01-19T20:02:10.692Z,0.00
2019-01-19T20:03:10.708Z,0.00
2019-01-19T20:04:10.658Z,0.00
2019-01-19T20:05:10.658Z,0.00
2019-01-19T20:06:10.632Z,0.00
2019-01-19T20:07:10.680Z,0.00
2019-01-19T20:08:10.648Z,0.00
2019-01-19T20:09:10.621Z,0.00
2019-01-19T20:10:16.810Z,0.00
2019-01-19T20:11:11.599Z,0.00
2019-01-19T20:12:10.600Z,0.00
2019-01-19T20:13:10.561Z,0.00
2019-01-19T20:14:10.593Z,0.00
2019-01-19T20:15:10.554Z,0.00
2019-01-19T20:16:10.564Z,0.00